Time;durP1;ratioP1;P1;durP2;ratioP2;P2;SDS_P1;SDS_P2;PMS_P1;PMS_P2;Temp;Humidity;BMP_temperature;BMP_pressure;BME280_temperature;BME280_humidity;BME280_pressure;Samples;Min_cycle;Max_cycle;Signal;HPM_P1;HPM_P2
2022/05/13 00:00:44;;;;;;;6.43;4.40;;;;;;;11.63;78.67;98769.44;4222358;27;20459;-69
2022/05/13 00:02:45;;;;;;;6.10;4.45;;;;;;;11.65;79.16;98769.84;4224031;27;20028;-69
2022/05/13 00:04:45;;;;;;;11.20;4.72;;;;;;;11.55;78.85;98771.31;4222266;27;20043;-69
2022/05/13 00:06:46;;;;;;;8.18;5.35;;;;;;;11.47;79.30;98775.97;4220701;27;20043;-69
2022/05/13 00:08:46;;;;;;;9.15;5.00;;;;;;;11.40;78.98;98773.13;4223970;27;20042;-69
2022/05/13 00:10:47;;;;;;;8.10;5.32;;;;;;;11.35;79.63;98775.44;4223631;27;20149;-69
2022/05/13 00:12:48;;;;;;;6.93;4.85;;;;;;;11.32;79.01;98767.84;4218067;27;20067;-69
2022/05/13 00:14:48;;;;;;;6.75;4.60;;;;;;;11.25;79.41;98763.00;4225159;27;20562;-69
2022/05/13 00:16:48;;;;;;;5.63;4.75;;;;;;;11.21;79.16;98773.25;4221481;27;20406;-69
2022/05/13 00:18:49;;;;;;;6.43;4.65;;;;;;;11.17;79.12;98767.69;4222543;27;20113;-69
2022/05/13 00:20:49;;;;;;;10.02;5.45;;;;;;;11.11;80.15;98769.19;4225762;27;20043;-69
2022/05/13 00:22:53;;;;;;;6.32;4.95;;;;;;;11.12;79.92;98772.75;4223469;27;20050;-69
2022/05/13 00:24:54;;;;;;;9.13;4.70;;;;;;;11.16;79.29;98762.50;4223082;27;20334;-69
2022/05/13 00:26:55;;;;;;;6.32;5.28;;;;;;;11.16;78.65;98768.03;4227846;27;20407;-69
2022/05/13 00:28:55;;;;;;;6.47;5.20;;;;;;;11.09;79.34;98770.69;4223861;27;20114;-69
2022/05/13 00:30:59;;;;;;;8.57;5.63;;;;;;;11.08;79.43;98769.91;4221836;28;20058;-69
2022/05/13 00:33:00;;;;;;;8.63;5.63;;;;;;;11.04;79.57;98771.03;4226981;27;20074;-69
2022/05/13 00:35:00;;;;;;;7.30;4.57;;;;;;;11.01;79.39;98777.34;4222961;27;20396;-69
2022/05/13 00:37:01;;;;;;;5.72;4.65;;;;;;;10.97;79.35;98772.53;4222112;27;20317;-69
2022/05/13 00:39:03;;;;;;;5.03;4.40;;;;;;;10.97;79.73;98771.75;4223280;27;20406;-69
2022/05/13 00:41:04;;;;;;;6.60;5.10;;;;;;;10.90;79.64;98772.44;4219515;28;20295;-69
2022/05/13 00:43:06;;;;;;;8.85;5.50;;;;;;;10.88;79.34;98771.22;4223823;27;20065;-69
2022/05/13 00:45:08;;;;;;;8.73;4.90;;;;;;;10.84;79.39;98759.28;4220120;28;20458;-69
2022/05/13 00:47:09;;;;;;;8.15;5.63;;;;;;;10.84;79.65;98764.81;4223389;27;20447;-69
2022/05/13 00:49:13;;;;;;;9.70;5.63;;;;;;;10.83;79.86;98755.72;4224295;28;20031;-70
2022/05/13 00:51:22;;;;;;;7.13;5.20;;;;;;;10.81;79.78;98758.06;4222318;28;20057;-69
2022/05/13 00:53:24;;;;;;;9.38;5.63;;;;;;;10.76;79.58;98752.03;4220255;28;20385;-69
2022/05/13 00:55:33;;;;;;;12.55;6.43;;;;;;;10.78;79.44;98758.00;4224792;28;20079;-69
2022/05/13 00:57:35;;;;;;;10.50;6.85;;;;;;;10.76;79.27;98752.03;4224583;28;20048;-69
2022/05/13 00:59:38;;;;;;;14.10;7.43;;;;;;;10.72;79.03;98757.53;4220632;27;20067;-69
2022/05/13 01:01:39;;;;;;;12.75;6.85;;;;;;;10.73;78.75;98752.78;4217092;28;20040;-69
2022/05/13 01:03:39;;;;;;;12.45;6.95;;;;;;;10.72;78.17;98749.22;4225267;28;20078;-68
2022/05/13 01:05:43;;;;;;;11.93;6.30;;;;;;;10.71;77.69;98752.38;4221212;28;20604;-69
2022/05/13 01:07:43;;;;;;;10.90;5.28;;;;;;;10.74;78.16;98757.16;4223065;27;20352;-69
2022/05/13 01:09:48;;;;;;;8.32;5.15;;;;;;;10.66;78.90;98754.28;4227519;27;20046;-69
2022/05/13 01:11:53;;;;;;;7.35;5.20;;;;;;;10.60;78.92;98752.22;4223233;27;20323;-69
2022/05/13 01:14:07;;;;;;;7.65;5.57;;;;;;;10.60;79.01;98754.97;4223629;27;20092;-69
2022/05/13 01:16:07;;;;;;;8.10;4.85;;;;;;;10.54;79.16;98748.94;4225165;27;20040;-69
2022/05/13 01:18:10;;;;;;;5.80;4.93;;;;;;;10.50;79.75;98747.28;4225866;27;20119;-69
2022/05/13 01:20:14;;;;;;;7.38;5.63;;;;;;;10.46;78.89;98746.44;4227080;27;20455;-69
2022/05/13 01:22:16;;;;;;;8.13;5.38;;;;;;;10.47;79.48;98750.81;4225497;27;20089;-69
2022/05/13 01:24:19;;;;;;;8.55;5.15;;;;;;;10.41;79.17;98753.06;4224010;27;20456;-69
2022/05/13 01:26:25;;;;;;;;;;;;;;;10.37;80.04;98760.53;4224137;27;20030;-69
2022/05/13 01:28:31;;;;;;;7.18;4.60;;;;;;;10.36;79.40;98756.16;4225384;27;19930;-69
2022/05/13 01:30:31;;;;;;;8.30;4.97;;;;;;;10.31;79.30;98748.97;4224416;27;20046;-69
2022/05/13 01:32:32;;;;;;;7.55;5.22;;;;;;;10.29;79.38;98751.31;4226568;27;20359;-69
2022/05/13 01:34:32;;;;;;;7.78;4.90;;;;;;;10.29;79.67;98750.53;4224391;27;20518;-69
2022/05/13 01:36:32;;;;;;;7.03;5.18;;;;;;;10.27;79.64;98755.63;4223089;27;20346;-68
2022/05/13 01:38:36;;;;;;;7.70;5.28;;;;;;;10.25;79.51;98741.34;4224687;27;20414;-69
2022/05/13 01:40:38;;;;;;;7.90;5.65;;;;;;;10.26;79.60;98748.47;4224398;27;20043;-69
2022/05/13 01:42:38;;;;;;;6.88;5.30;;;;;;;10.25;79.02;98750.44;4227615;27;20351;-69
2022/05/13 01:44:39;;;;;;;6.47;4.90;;;;;;;10.31;78.38;98743.44;4228008;27;20134;-69
2022/05/13 01:46:39;;;;;;;7.35;5.05;;;;;;;10.28;78.19;98735.88;4223502;27;20309;-69
2022/05/13 01:48:40;;;;;;;5.97;4.78;;;;;;;10.32;78.16;98747.78;4226045;27;20806;-68
2022/05/13 01:50:41;;;;;;;5.78;5.07;;;;;;;10.34;77.36;98741.88;4222909;27;20046;-69
2022/05/13 01:52:41;;;;;;;6.07;4.82;;;;;;;10.33;77.08;98735.56;4225853;27;20530;-68
2022/05/13 01:54:41;;;;;;;7.03;4.85;;;;;;;10.34;77.78;98736.34;4224735;27;20502;-69
2022/05/13 01:56:41;;;;;;;7.93;5.40;;;;;;;10.22;78.62;98731.84;4220835;27;20040;-69
2022/05/13 01:58:42;;;;;;;7.70;5.72;;;;;;;10.16;78.71;98733.28;4220638;27;20040;-69
2022/05/13 02:00:43;;;;;;;7.15;5.35;;;;;;;10.10;78.98;98738.31;4225783;27;20042;-68
2022/05/13 02:05:04;;;;;;;6.57;5.03;;;;;;;10.03;78.46;98734.63;4221827;27;20042;-68
2022/05/13 02:07:05;;;;;;;5.43;4.57;;;;;;;10.05;77.62;98735.06;4223927;27;20062;-68
2022/05/13 02:09:05;;;;;;;6.20;4.53;;;;;;;10.11;77.68;98744.66;4225607;27;20039;-68
2022/05/13 02:11:06;;;;;;;6.60;5.50;;;;;;;10.09;77.42;98738.66;4219819;27;20111;-69
2022/05/13 02:13:06;;;;;;;6.85;5.20;;;;;;;9.95;77.94;98739.25;4221567;27;20032;-68
2022/05/13 02:15:07;;;;;;;5.72;5.13;;;;;;;9.74;78.10;98738.84;4225919;27;20489;-68
2022/05/13 02:17:07;;;;;;;5.97;4.93;;;;;;;9.66;78.60;98737.91;4222264;27;20097;-68
2022/05/13 02:19:08;;;;;;;9.02;5.30;;;;;;;9.67;78.57;98733.16;4224522;27;20123;-68
2022/05/13 02:21:11;;;;;;;8.80;5.95;;;;;;;9.71;78.18;98732.09;4225456;27;20040;-68
2022/05/13 02:23:11;;;;;;;7.03;4.93;;;;;;;9.72;78.01;98735.63;4225417;27;20038;-68
2022/05/13 02:25:12;;;;;;;6.57;4.93;;;;;;;9.67;78.11;98730.41;4225448;27;20027;-68
2022/05/13 02:27:12;;;;;;;7.10;5.13;;;;;;;9.61;77.93;98738.22;4227258;27;20047;-68
2022/05/13 02:29:12;;;;;;;6.72;5.68;;;;;;;9.50;79.32;98734.41;4225042;27;20767;-68
2022/05/13 02:31:14;;;;;;;9.13;5.38;;;;;;;9.36;79.75;98737.72;4224718;27;20085;-68
2022/05/13 02:33:14;;;;;;;7.07;5.15;;;;;;;9.31;78.73;98737.19;4225524;27;20267;-68
2022/05/13 02:35:15;;;;;;;8.38;5.22;;;;;;;9.14;79.84;98738.44;4222673;27;20100;-68
2022/05/13 02:37:16;;;;;;;6.53;5.13;;;;;;;9.08;80.66;98742.63;4225826;27;20387;-68
2022/05/13 02:39:16;;;;;;;6.65;5.95;;;;;;;8.91;82.02;98733.59;4224979;27;20043;-69
2022/05/13 02:41:17;;;;;;;6.60;5.22;;;;;;;8.86;81.73;98733.09;4220421;27;20127;-70
2022/05/13 02:43:17;;;;;;;9.43;5.38;;;;;;;8.81;82.07;98736.91;4222221;27;20157;-68
2022/05/13 02:45:18;;;;;;;9.80;5.63;;;;;;;8.76;82.18;98742.72;4223405;27;20851;-68
2022/05/13 02:47:18;;;;;;;10.15;5.93;;;;;;;8.73;82.81;98741.47;4224523;27;20115;-68
2022/05/13 02:49:19;;;;;;;7.05;5.40;;;;;;;8.60;84.64;98739.19;4225944;27;20035;-68
2022/05/13 02:51:20;;;;;;;7.50;5.13;;;;;;;8.59;83.48;98740.34;4222778;27;20401;-69
2022/05/13 02:53:22;;;;;;;8.35;5.35;;;;;;;8.56;84.05;98735.56;4223687;27;20042;-68
2022/05/13 02:55:22;;;;;;;7.63;5.57;;;;;;;8.61;83.18;98740.81;4222786;27;20396;-68
2022/05/13 02:57:23;;;;;;;8.25;5.53;;;;;;;8.57;84.35;98739.91;4225263;27;20176;-68
2022/05/13 02:59:23;;;;;;;8.45;6.00;;;;;;;8.54;84.35;98744.19;4223585;27;20177;-68
2022/05/13 03:01:23;;;;;;;9.80;5.40;;;;;;;8.48;84.96;98739.31;4225506;27;20032;-68
2022/05/13 03:03:24;;;;;;;8.13;5.63;;;;;;;8.43;86.05;98738.41;4225154;27;20031;-69
2022/05/13 03:05:24;;;;;;;8.57;5.30;;;;;;;8.51;84.90;98738.56;4224632;27;20615;-69
2022/05/13 03:07:25;;;;;;;11.48;6.10;;;;;;;8.52;85.01;98737.41;4226880;27;20035;-68
2022/05/13 03:09:25;;;;;;;9.27;5.32;;;;;;;8.51;85.13;98744.88;4222910;27;20044;-68
2022/05/13 03:11:25;;;;;;;7.90;5.90;;;;;;;8.54;84.41;98737.88;4226308;27;20039;-68
2022/05/13 03:13:26;;;;;;;8.23;5.22;;;;;;;8.56;84.78;98738.31;4223259;27;20101;-70
2022/05/13 03:15:27;;;;;;;5.78;5.00;;;;;;;8.59;84.16;98743.09;4221920;27;20047;-68
2022/05/13 03:17:28;;;;;;;7.75;5.57;;;;;;;8.52;84.51;98751.19;4225016;27;20484;-68
2022/05/13 03:19:28;;;;;;;6.00;4.65;;;;;;;8.54;83.98;98746.94;4221902;27;20127;-70
2022/05/13 03:21:29;;;;;;;5.80;5.18;;;;;;;8.49;84.31;98751.94;4223127;27;20063;-69
2022/05/13 03:23:29;;;;;;;6.88;5.05;;;;;;;8.46;85.19;98753.44;4224836;27;20790;-69
2022/05/13 03:25:30;;;;;;;8.60;5.90;;;;;;;8.48;84.05;98753.09;4222733;27;20043;-69
2022/05/13 03:27:31;;;;;;;7.47;5.38;;;;;;;8.46;85.00;98744.38;4221083;27;20035;-69
2022/05/13 03:29:32;;;;;;;9.02;5.30;;;;;;;8.45;85.06;98746.34;4219501;27;20039;-69
2022/05/13 03:31:34;;;;;;;5.72;4.88;;;;;;;8.47;84.57;98749.53;4219946;28;20128;-69
2022/05/13 03:33:35;;;;;;;8.43;5.50;;;;;;;8.51;83.97;98744.09;4224783;27;20043;-69
2022/05/13 03:35:35;;;;;;;7.57;5.93;;;;;;;8.52;84.61;98737.41;4225153;27;20112;-70
2022/05/13 03:37:36;;;;;;;5.72;5.13;;;;;;;8.51;85.15;98741.34;4220347;28;20036;-70
2022/05/13 03:39:36;;;;;;;6.45;4.93;;;;;;;8.51;85.48;98749.59;4219842;28;20071;-69
2022/05/13 03:41:36;;;;;;;7.47;5.53;;;;;;;8.46;85.32;98749.91;4219489;28;20387;-70
2022/05/13 03:43:37;;;;;;;6.45;5.30;;;;;;;8.39;85.88;98742.25;4220589;28;20040;-69
2022/05/13 03:45:37;;;;;;;8.00;5.47;;;;;;;8.39;85.04;98747.75;4224985;27;20429;-70
2022/05/13 03:47:38;;;;;;;10.27;5.40;;;;;;;8.38;86.24;98746.97;4220122;27;20073;-70
2022/05/13 03:49:38;;;;;;;7.90;4.93;;;;;;;8.37;86.50;98744.56;4219819;27;20230;-70
2022/05/13 03:51:39;;;;;;;9.32;4.90;;;;;;;8.37;86.01;98752.84;4220344;28;20065;-70
2022/05/13 03:53:40;;;;;;;9.57;6.18;;;;;;;8.34;87.01;98743.28;4226954;27;20048;-70
2022/05/13 03:55:41;;;;;;;7.85;5.13;;;;;;;8.34;87.61;98745.22;4223995;27;20024;-69
2022/05/13 03:57:41;;;;;;;8.38;5.60;;;;;;;8.36;87.06;98749.28;4224319;27;20075;-70
2022/05/13 03:59:42;;;;;;;9.75;5.32;;;;;;;8.36;87.75;98749.28;4232686;27;20463;-70
2022/05/13 04:01:42;;;;;;;11.73;5.70;;;;;;;8.37;87.82;98750.09;4220530;27;20047;-70
2022/05/13 04:03:43;;;;;;;8.55;5.55;;;;;;;8.39;88.37;98753.28;4219568;28;20428;-70
2022/05/13 04:10:21;;;;;;;10.50;5.80;;;;;;;8.76;83.04;98752.94;4218608;28;20094;-70
2022/05/13 04:17:05;;;;;;;9.88;5.32;;;;;;;8.91;82.22;98747.41;4217892;28;20078;-70
2022/05/13 04:19:06;;;;;;;7.15;5.28;;;;;;;8.97;82.39;98753.44;4221294;27;20043;-70
2022/05/13 04:21:14;;;;;;;7.20;4.55;;;;;;;8.98;81.44;98735.72;4225045;27;20051;-70
2022/05/13 04:23:17;;;;;;;7.78;4.60;;;;;;;9.06;80.54;98742.19;4221278;27;20082;-70
2022/05/13 04:25:18;;;;;;;6.72;4.53;;;;;;;9.09;81.62;98746.97;4219745;28;20036;-70
2022/05/13 04:27:19;;;;;;;6.18;4.63;;;;;;;9.05;82.98;98746.13;4219477;28;20105;-70
2022/05/13 04:29:19;;;;;;;7.30;4.65;;;;;;;8.96;83.58;98744.38;4219203;28;20042;-70
2022/05/13 04:31:22;;;;;;;8.27;5.00;;;;;;;8.91;83.87;98743.84;4220734;27;20134;-70
2022/05/13 04:33:23;;;;;;;6.40;4.80;;;;;;;8.88;83.71;98739.84;4220047;28;20135;-70
2022/05/13 04:35:23;;;;;;;6.90;4.97;;;;;;;8.91;83.12;98752.13;4219592;28;20078;-70
2022/05/13 04:37:25;;;;;;;6.90;5.53;;;;;;;8.90;83.60;98742.25;4223787;27;20501;-70
2022/05/13 04:39:25;;;;;;;8.70;5.07;;;;;;;8.97;82.87;98748.72;4225643;27;20044;-70
2022/05/13 04:43:46;;;;;;;7.57;5.13;;;;;;;9.11;81.89;98742.72;4219833;28;20092;-70
2022/05/13 04:45:46;;;;;;;5.47;4.65;;;;;;;9.15;82.77;98740.81;4223260;28;20599;-70
2022/05/13 04:50:06;;;;;;;5.97;4.60;;;;;;;9.15;82.29;98746.34;4222179;28;20098;-70
2022/05/13 04:52:07;;;;;;;6.28;4.72;;;;;;;9.16;81.59;98744.38;4219453;28;20080;-70
2022/05/13 04:54:08;;;;;;;6.10;5.00;;;;;;;9.16;82.33;98744.38;4224166;27;20429;-70
2022/05/13 04:56:08;;;;;;;6.70;5.38;;;;;;;9.14;82.49;98747.50;4143748;28;20056;-70
2022/05/13 04:58:09;;;;;;;8.10;4.82;;;;;;;9.20;81.27;98743.31;4220473;27;20032;-70
2022/05/13 05:00:09;;;;;;;7.25;4.90;;;;;;;9.36;80.42;98746.00;4223839;27;20035;-70
2022/05/13 05:02:10;;;;;;;12.85;5.75;;;;;;;9.46;80.72;98748.16;4219483;28;20083;-70
2022/05/13 05:04:10;;;;;;;7.22;5.15;;;;;;;9.54;79.50;98754.63;4219243;28;20387;-70
2022/05/13 05:06:12;;;;;;;10.43;5.22;;;;;;;9.69;79.52;98752.97;4219243;28;20031;-70
2022/05/13 05:08:14;;;;;;;11.40;5.75;;;;;;;9.81;78.78;98755.56;4218849;28;20034;-70
2022/05/13 05:10:14;;;;;;;6.88;5.25;;;;;;;9.91;78.27;98756.91;4218878;28;20039;-70
2022/05/13 05:12:15;;;;;;;7.97;5.95;;;;;;;10.00;78.24;98746.41;4217944;28;20031;-70
2022/05/13 05:14:15;;;;;;;5.95;4.63;;;;;;;10.09;77.96;98747.78;4220494;27;20035;-70
2022/05/13 05:16:16;;;;;;;8.57;5.60;;;;;;;10.18;77.22;98753.06;4222270;27;20027;-70
2022/05/13 05:18:17;;;;;;;7.75;5.18;;;;;;;10.27;76.62;98752.84;4219165;28;20078;-70
2022/05/13 05:20:20;;;;;;;8.82;5.25;;;;;;;10.35;76.70;98746.28;4221535;27;20336;-70
2022/05/13 05:22:20;;;;;;;7.68;4.90;;;;;;;10.45;76.95;98764.22;4220912;28;20123;-70
2022/05/13 05:24:21;;;;;;;8.15;5.72;;;;;;;10.53;77.27;98763.16;4219933;28;20097;-70
2022/05/13 05:26:21;;;;;;;7.32;5.28;;;;;;;10.60;77.60;98766.03;4225233;27;20343;-70
2022/05/13 05:28:22;;;;;;;9.50;5.38;;;;;;;10.69;77.48;98770.16;4229897;27;20063;-70
2022/05/13 05:30:22;;;;;;;8.30;5.65;;;;;;;10.79;78.36;98773.44;4219697;28;20068;-70
2022/05/13 05:32:23;;;;;;;8.43;5.15;;;;;;;10.87;79.19;98770.41;4221367;27;20752;-70
2022/05/13 05:34:23;;;;;;;7.50;5.10;;;;;;;10.96;79.94;98775.69;4218576;28;20044;-70
2022/05/13 05:36:24;;;;;;;8.18;5.82;;;;;;;11.06;80.77;98774.22;4219284;27;20218;-70
2022/05/13 05:38:25;;;;;;;8.43;5.55;;;;;;;11.16;80.35;98777.16;4217106;28;20052;-70
2022/05/13 05:40:25;;;;;;;7.28;5.38;;;;;;;11.24;80.53;98770.53;4217722;27;20038;-71
2022/05/13 05:42:25;;;;;;;6.63;4.97;;;;;;;11.31;79.72;98778.16;4218314;28;20088;-70
2022/05/13 05:44:26;;;;;;;8.07;5.30;;;;;;;11.38;79.01;98772.69;4218405;28;20596;-70
2022/05/13 05:46:26;;;;;;;8.38;5.45;;;;;;;11.47;80.95;98767.66;4224942;27;20043;-71
2022/05/13 05:48:28;;;;;;;7.28;4.93;;;;;;;11.60;80.08;98771.00;4216908;28;20647;-70
2022/05/13 05:50:28;;;;;;;7.28;5.00;;;;;;;11.68;79.76;98771.88;4218583;28;20386;-70
2022/05/13 05:52:28;;;;;;;6.38;5.50;;;;;;;11.79;79.20;98767.25;4219111;28;20142;-70
2022/05/13 05:57:22;;;;;;;7.30;4.93;;;;;;;11.99;77.67;98757.59;4222498;27;20127;-70
2022/05/13 05:59:14;;;;;;;6.53;5.25;;;;;;;12.21;75.07;98766.13;4217022;27;20093;-70
2022/05/13 06:01:15;;;;;;;8.82;5.43;;;;;;;12.33;75.31;98765.88;4222275;28;20479;-69
2022/05/13 06:03:16;;;;;;;7.15;5.35;;;;;;;12.45;76.52;98767.53;4221617;27;20051;-70
2022/05/13 06:05:16;;;;;;;7.70;5.10;;;;;;;12.55;76.79;98762.06;4222521;27;20036;-70
2022/05/13 06:07:17;;;;;;;8.02;5.03;;;;;;;12.72;72.68;98759.81;4228727;27;20079;-71
2022/05/13 06:09:17;;;;;;;8.80;5.65;;;;;;;12.88;75.50;98772.22;4220683;27;20032;-70
2022/05/13 06:11:17;;;;;;;8.70;5.35;;;;;;;13.06;74.82;98768.78;4226035;27;20501;-70
2022/05/13 06:13:18;;;;;;;9.13;4.75;;;;;;;13.29;70.89;98766.56;4224537;27;20047;-70
2022/05/13 06:15:19;;;;;;;7.43;4.47;;;;;;;13.50;71.15;98763.09;4223461;27;20043;-70
2022/05/13 06:17:19;;;;;;;6.97;4.00;;;;;;;13.76;69.64;98767.56;4221836;27;20043;-70
2022/05/13 06:19:19;;;;;;;5.82;3.92;;;;;;;13.99;69.10;98765.25;4219704;28;20086;-70
2022/05/13 06:21:20;;;;;;;6.95;3.80;;;;;;;14.14;65.57;98770.81;4220940;28;20036;-70
2022/05/13 06:23:21;;;;;;;7.05;3.75;;;;;;;14.24;65.19;98778.41;4221808;27;20385;-70
2022/05/13 06:25:21;;;;;;;6.13;3.50;;;;;;;14.33;65.40;98757.34;4222029;27;20047;-70
2022/05/13 06:27:21;;;;;;;7.40;4.05;;;;;;;14.43;65.91;98755.75;4222262;28;20047;-70
2022/05/13 06:29:24;;;;;;;7.18;4.20;;;;;;;14.54;65.13;98764.94;4221810;27;20039;-70
2022/05/13 06:31:26;;;;;;;6.72;3.95;;;;;;;14.64;65.86;98762.53;4221553;28;20051;-70
2022/05/13 06:33:27;;;;;;;7.50;3.92;;;;;;;14.67;63.21;98757.00;4221710;27;20047;-70
2022/05/13 06:35:30;;;;;;;8.82;3.50;;;;;;;14.75;62.39;98769.72;4221577;27;20044;-70
2022/05/13 06:37:31;;;;;;;;;;;;;;;14.88;62.22;98772.88;4227588;27;20474;-70
2022/05/13 06:39:31;;;;;;;8.02;3.90;;;;;;;15.01;61.28;98770.47;4229560;27;20078;-71
2022/05/13 06:41:31;;;;;;;6.72;3.92;;;;;;;15.12;61.34;98774.03;4221428;28;20135;-71
2022/05/13 06:43:32;;;;;;;9.25;3.75;;;;;;;15.18;61.46;98766.84;4221740;28;20043;-70
2022/05/13 06:45:32;;;;;;;5.68;3.50;;;;;;;15.29;60.68;98767.63;4225725;27;20039;-71
2022/05/13 06:47:33;;;;;;;8.02;3.63;;;;;;;15.39;59.78;98769.59;4235278;27;20566;-71
2022/05/13 06:49:33;;;;;;;7.55;3.72;;;;;;;15.50;58.85;98780.72;4226769;27;20047;-71
2022/05/13 06:51:34;;;;;;;6.80;3.25;;;;;;;15.47;58.50;98767.56;4221068;27;20036;-71
2022/05/13 06:53:34;;;;;;;8.00;3.08;;;;;;;15.41;59.30;98775.56;4221331;28;20429;-71
2022/05/13 06:55:34;;;;;;;6.32;3.38;;;;;;;15.57;59.19;98768.75;4221070;28;20061;-71
2022/05/13 06:57:37;;;;;;;4.95;2.75;;;;;;;15.77;58.51;98769.88;4221386;28;20043;-71
2022/05/13 06:59:37;;;;;;;;;;;;;;;15.77;58.79;98771.88;4221107;28;20058;-71
2022/05/13 07:01:38;;;;;;;6.55;3.25;;;;;;;15.76;57.75;98773.06;4221503;28;19994;-71
2022/05/13 07:03:38;;;;;;;4.63;3.00;;;;;;;15.79;56.59;98775.81;4221190;28;20399;-71
2022/05/13 07:05:38;;;;;;;7.53;2.70;;;;;;;15.77;57.22;98769.06;4223992;27;20168;-71
2022/05/13 07:07:39;;;;;;;12.32;2.60;;;;;;;15.99;55.90;98768.56;4221947;27;20077;-71
2022/05/13 07:09:40;;;;;;;8.23;2.55;;;;;;;15.92;55.12;98768.59;4220770;27;20051;-71
2022/05/13 07:11:40;;;;;;;5.05;2.85;;;;;;;15.98;56.16;98780.13;4220671;27;20267;-71
2022/05/13 07:13:41;;;;;;;7.43;2.70;;;;;;;16.09;55.56;98783.66;4221161;28;20279;-71
2022/05/13 07:15:43;;;;;;;3.00;2.03;;;;;;;16.19;55.50;98779.19;4221089;28;20395;-71
2022/05/13 07:17:43;;;;;;;4.30;2.50;;;;;;;16.24;54.04;98773.19;4220113;27;20551;-71
2022/05/13 07:19:44;;;;;;;7.97;2.28;;;;;;;16.15;53.92;98781.25;4220128;28;20071;-71
2022/05/13 07:21:44;;;;;;;9.88;2.50;;;;;;;16.29;53.66;98786.72;4220636;28;20082;-70
2022/05/13 07:23:44;;;;;;;6.50;2.55;;;;;;;16.37;54.84;98793.03;4221432;27;20524;-71
2022/05/13 07:25:45;;;;;;;4.65;2.10;;;;;;;16.50;53.68;98800.53;4227742;27;20071;-71
2022/05/13 07:27:45;;;;;;;3.58;2.13;;;;;;;16.58;53.16;98809.66;4220781;28;20048;-71
2022/05/13 07:29:46;;;;;;;4.95;2.28;;;;;;;16.51;52.09;98798.53;4219745;28;20371;-71
2022/05/13 07:31:46;;;;;;;3.38;2.10;;;;;;;16.43;52.25;98797.78;4221067;27;20040;-71
2022/05/13 07:33:46;;;;;;;7.15;2.20;;;;;;;16.50;53.64;98799.75;4220389;27;20052;-71
2022/05/13 07:35:47;;;;;;;5.70;2.53;;;;;;;16.46;53.61;98785.78;4227038;27;20039;-71
2022/05/13 07:37:48;;;;;;;5.40;2.42;;;;;;;16.45;53.26;98784.22;4221169;28;20046;-71
2022/05/13 07:42:09;;;;;;;3.50;2.22;;;;;;;16.43;54.51;98777.44;4220033;28;20043;-71
2022/05/13 07:44:10;;;;;;;4.60;2.13;;;;;;;16.31;52.11;98795.50;4219776;28;20032;-70
2022/05/13 07:46:12;;;;;;;4.03;2.08;;;;;;;16.25;52.03;98788.75;4220232;28;20437;-70
2022/05/13 07:48:12;;;;;;;5.40;1.90;;;;;;;16.21;52.96;98785.97;4220354;28;20039;-70
2022/05/13 07:50:14;;;;;;;4.80;2.10;;;;;;;16.21;52.39;98785.97;4219947;27;20452;-70
2022/05/13 07:52:14;;;;;;;3.40;2.20;;;;;;;16.22;53.55;98782.00;4220722;28;20023;-70
2022/05/13 07:54:15;;;;;;;5.97;2.33;;;;;;;16.39;53.82;98773.91;4222069;27;20036;-70
2022/05/13 07:56:15;;;;;;;4.00;2.33;;;;;;;16.50;53.33;98783.78;4224208;27;20542;-70
2022/05/13 07:58:16;;;;;;;5.70;2.47;;;;;;;16.60;53.35;98781.31;4220185;27;20541;-70
2022/05/13 08:00:29;;;;;;;6.45;2.65;;;;;;;16.47;52.54;98781.81;4223673;27;20513;-70
2022/05/13 08:02:30;;;;;;;7.50;2.92;;;;;;;16.63;53.06;98795.25;4226512;27;20090;-70
2022/05/13 08:04:30;;;;;;;6.55;2.63;;;;;;;16.62;52.22;98792.88;4220515;27;20408;-70
2022/05/13 08:06:32;;;;;;;4.72;2.28;;;;;;;16.44;52.28;98785.41;4220058;28;20100;-70
2022/05/13 08:08:41;;;;;;;5.82;2.20;;;;;;;16.33;51.41;98792.28;4219245;28;20486;-70
2022/05/13 08:10:46;;;;;;;6.30;2.38;;;;;;;16.20;51.97;98789.16;4219994;27;20378;-70
2022/05/13 08:12:46;;;;;;;5.20;2.70;;;;;;;16.11;53.22;98792.41;4225062;27;20183;-70
2022/05/13 08:14:46;;;;;;;4.28;2.70;;;;;;;16.01;53.17;98782.09;4221437;27;20059;-70
2022/05/13 08:16:47;;;;;;;6.28;2.72;;;;;;;16.01;54.91;98785.69;4218065;28;20074;-70
2022/05/13 08:18:48;;;;;;;8.15;2.20;;;;;;;16.08;53.69;98778.47;4219029;28;20046;-70
2022/05/13 08:20:49;;;;;;;4.05;2.20;;;;;;;16.11;53.47;98784.03;4220254;28;20062;-70
2022/05/13 08:22:49;;;;;;;5.70;2.42;;;;;;;16.12;52.16;98784.81;4219985;27;20040;-70
2022/05/13 08:24:50;;;;;;;5.15;2.08;;;;;;;16.17;52.38;98782.41;4220031;28;20515;-70
2022/05/13 08:26:50;;;;;;;6.55;2.03;;;;;;;16.26;52.79;98793.13;4220243;28;20083;-70
2022/05/13 08:28:50;;;;;;;3.22;2.08;;;;;;;16.45;51.94;98786.22;4230006;27;20153;-70
2022/05/13 08:30:52;;;;;;;6.88;2.15;;;;;;;16.65;51.32;98781.69;4219660;28;20043;-70
2022/05/13 08:32:52;;;;;;;4.65;2.15;;;;;;;16.94;52.00;98789.84;4219691;28;20048;-70
2022/05/13 08:34:53;;;;;;;4.88;1.90;;;;;;;17.13;50.75;98792.84;4230805;27;20054;-70
2022/05/13 08:36:53;;;;;;;7.65;1.88;;;;;;;17.25;48.98;98802.72;4219712;28;20159;-70
2022/05/13 08:38:54;;;;;;;6.80;1.88;;;;;;;17.16;46.30;98787.63;4218887;28;20035;-70
2022/05/13 08:41:09;;;;;;;6.80;2.30;;;;;;;17.15;46.85;98800.81;4220517;28;20215;-70
2022/05/13 08:43:16;;;;;;;3.15;1.55;;;;;;;17.16;48.01;98791.22;4227661;28;20044;-70
2022/05/13 08:45:19;;;;;;;6.03;1.63;;;;;;;17.19;46.77;98772.81;4224372;28;20474;-70
2022/05/13 08:47:25;;;;;;;4.00;1.90;;;;;;;17.27;47.79;98780.72;4220195;28;20202;-70
2022/05/13 08:49:47;;;;;;;6.78;1.80;;;;;;;17.33;47.33;98776.25;4218674;27;20050;-70
2022/05/13 08:54:37;;;;;;;4.85;2.33;;;;;;;17.62;47.34;98787.13;4219775;28;20065;-70
2022/05/13 08:56:38;;;;;;;8.32;2.10;;;;;;;17.75;48.56;98791.00;4220028;28;20047;-70
2022/05/13 08:59:05;;;;;;;7.63;3.83;;;;;;;17.88;44.94;98794.03;4220771;27;20380;-70
2022/05/13 09:01:11;;;;;;;3.20;2.53;;;;;;;18.00;45.90;98796.28;4218487;28;20492;-70
2022/05/13 09:03:34;;;;;;;4.90;2.10;;;;;;;18.08;47.25;98808.19;4218701;27;20390;-70
2022/05/13 09:05:48;;;;;;;5.30;1.95;;;;;;;17.95;44.72;98822.72;4226039;27;20725;-70
2022/05/13 09:07:51;;;;;;;5.15;2.00;;;;;;;17.82;44.92;98824.50;4219887;28;20039;-70
2022/05/13 09:09:57;;;;;;;4.55;1.90;;;;;;;17.90;44.90;98817.59;4218836;28;20558;-70
2022/05/13 09:12:17;;;;;;;9.38;2.30;;;;;;;17.83;44.10;98814.88;4221762;27;20368;-70
2022/05/13 09:14:38;;;;;;;6.50;2.85;;;;;;;17.45;44.84;98805.69;4219010;28;20383;-70
2022/05/13 09:16:48;;;;;;;4.53;2.17;;;;;;;17.14;46.93;98824.41;4219761;28;20039;-70
2022/05/13 09:18:58;;;;;;;6.60;2.03;;;;;;;16.97;46.86;98812.19;4218780;28;20538;-70
2022/05/13 09:21:14;;;;;;;4.68;2.10;;;;;;;16.31;45.52;98820.63;4219627;28;20047;-70
2022/05/13 09:23:15;;;;;;;5.15;2.10;;;;;;;16.27;46.68;98820.63;4219443;28;20043;-70
2022/05/13 09:25:30;;;;;;;2.85;1.65;;;;;;;16.23;47.33;98842.19;4219842;28;20089;-70
2022/05/13 09:27:42;;;;;;;6.35;2.08;;;;;;;16.18;46.71;98839.03;4225180;27;20061;-70
2022/05/13 09:29:45;;;;;;;5.88;1.60;;;;;;;15.98;43.78;98831.16;4220338;28;20051;-70
2022/05/13 09:31:54;;;;;;;4.70;1.60;;;;;;;16.01;44.75;98858.25;4221328;28;20051;-70
2022/05/13 09:33:54;;;;;;;4.30;2.30;;;;;;;16.22;44.96;98839.81;4219264;27;20075;-70
2022/05/13 09:35:58;;;;;;;4.85;1.83;;;;;;;16.24;43.13;98838.22;4225041;27;20108;-70
2022/05/13 09:38:12;;;;;;;2.83;1.63;;;;;;;16.15;42.29;98849.03;4227132;27;20035;-70
2022/05/13 09:40:23;;;;;;;5.78;2.30;;;;;;;16.19;42.46;98849.78;4225220;27;20096;-70
2022/05/13 09:42:35;;;;;;;4.50;1.90;;;;;;;16.20;42.70;98848.56;4223061;27;20442;-70
2022/05/13 09:44:35;;;;;;;5.25;1.63;;;;;;;16.59;43.43;98853.16;4226596;27;20059;-70
2022/05/13 09:46:44;;;;;;;5.15;1.65;;;;;;;16.95;46.58;98850.91;4228527;27;20056;-70
2022/05/13 09:49:20;;;;;;;5.78;2.33;;;;;;;17.33;46.93;98853.78;4225780;27;20047;-70
2022/05/13 09:51:35;;;;;;;3.03;1.80;;;;;;;17.30;42.07;98849.03;4221744;28;20044;-70
2022/05/13 09:53:35;;;;;;;3.83;1.77;;;;;;;17.22;42.10;98864.28;4222168;27;20122;-70
2022/05/13 09:55:39;;;;;;;4.32;1.70;;;;;;;16.90;42.66;98848.56;4221682;27;20079;-70
2022/05/13 09:57:39;;;;;;;5.72;2.13;;;;;;;16.86;41.53;98842.19;4221329;28;20054;-70
2022/05/13 09:59:42;;;;;;;3.92;1.75;;;;;;;16.89;43.14;98829.41;4221669;28;20044;-70
2022/05/13 10:01:43;;;;;;;3.72;2.03;;;;;;;16.94;42.58;98829.75;4222152;28;20050;-70